AJB520 SABE-SAZT
Flight info
| Callsign | AJB520 |
|---|---|
| Flight time | N/A |
| Altitude | 22000 |
| Route | PTA8 GBE W18 DIL |
| Aircraft | AT46/M-SDFGIRY/S |
Departure
| Time | N/A |
|---|---|
| Airport | Aeroparque Jorge Newbery (SABE) |
Arrival
| Time | 2026-05-07 20:38 |
|---|---|
| Airport | Héroes de Malvinas Airport (SAZT) |
| Time | Latitude | Longitude | Altitude | Speed | Heading |
|---|---|---|---|---|---|
| 2026-05-07 20:08 | -35.41333 | -58.38109 | 21622 ft | 297 kts | 205° |
| 2026-05-07 20:09 | -35.43387 | -58.38619 | 21616 ft | 305 kts | 205° |
| 2026-05-07 20:09 | -35.45483 | -58.39140 | 21623 ft | 310 kts | 205° |
| 2026-05-07 20:09 | -35.47616 | -58.39672 | 21619 ft | 315 kts | 204° |
| 2026-05-07 20:10 | -35.51967 | -58.40763 | 21624 ft | 322 kts | 204° |
| 2026-05-07 20:10 | -35.54168 | -58.41319 | 21617 ft | 324 kts | 204° |
| 2026-05-07 20:10 | -35.56380 | -58.41878 | 21612 ft | 326 kts | 204° |
| 2026-05-07 20:10 | -35.58605 | -58.42440 | 21613 ft | 327 kts | 204° |
| 2026-05-07 20:11 | -35.60839 | -58.43004 | 21613 ft | 328 kts | 204° |
| 2026-05-07 20:11 | -35.63077 | -58.43570 | 21615 ft | 329 kts | 204° |
| 2026-05-07 20:11 | -35.65317 | -58.44137 | 21610 ft | 329 kts | 204° |
| 2026-05-07 20:11 | -35.67562 | -58.44706 | 21614 ft | 330 kts | 204° |
| 2026-05-07 20:12 | -35.69810 | -58.45277 | 21616 ft | 330 kts | 204° |
| 2026-05-07 20:12 | -35.72068 | -58.45841 | 21612 ft | 331 kts | 204° |
| 2026-05-07 20:12 | -35.74318 | -58.46411 | 21610 ft | 327 kts | 206° |
| 2026-05-07 20:12 | -35.76477 | -58.47205 | 21611 ft | 321 kts | 212° |
| 2026-05-07 20:13 | -35.78546 | -58.48185 | 21612 ft | 316 kts | 217° |
| 2026-05-07 20:13 | -35.80557 | -58.49260 | 21609 ft | 315 kts | 218° |
| 2026-05-07 20:13 | -35.82571 | -58.50346 | 21611 ft | 316 kts | 217° |
| 2026-05-07 20:13 | -35.84599 | -58.51405 | 21610 ft | 317 kts | 216° |
| 2026-05-07 20:14 | -35.86635 | -58.52442 | 21610 ft | 317 kts | 216° |
| 2026-05-07 20:14 | -35.88678 | -58.53479 | 21610 ft | 317 kts | 216° |
| 2026-05-07 20:14 | -35.90716 | -58.54513 | 21605 ft | 317 kts | 216° |
| 2026-05-07 20:14 | -35.92764 | -58.55542 | 21608 ft | 317 kts | 216° |
| 2026-05-07 20:15 | -35.94807 | -58.56571 | 21607 ft | 317 kts | 216° |
| 2026-05-07 20:15 | -35.96847 | -58.57605 | 21607 ft | 317 kts | 216° |
| 2026-05-07 20:15 | -35.98887 | -58.58643 | 21606 ft | 317 kts | 216° |
| 2026-05-07 20:15 | -36.00926 | -58.59682 | 21603 ft | 317 kts | 216° |
| 2026-05-07 20:16 | -36.02961 | -58.60723 | 21604 ft | 317 kts | 216° |
| 2026-05-07 20:16 | -36.04999 | -58.61768 | 21603 ft | 317 kts | 216° |
| 2026-05-07 20:16 | -36.07034 | -58.62815 | 21600 ft | 317 kts | 216° |
| 2026-05-07 20:16 | -36.09065 | -58.63863 | 21600 ft | 316 kts | 216° |
| 2026-05-07 20:17 | -36.11091 | -58.64913 | 21598 ft | 316 kts | 216° |
| 2026-05-07 20:17 | -36.13124 | -58.65970 | 21596 ft | 316 kts | 216° |
| 2026-05-07 20:17 | -36.15153 | -58.67026 | 21598 ft | 316 kts | 216° |
| 2026-05-07 20:17 | -36.17179 | -58.68085 | 21600 ft | 316 kts | 216° |
| 2026-05-07 20:18 | -36.19200 | -58.69145 | 21597 ft | 316 kts | 216° |
| 2026-05-07 20:18 | -36.21226 | -58.70210 | 21593 ft | 316 kts | 216° |
| 2026-05-07 20:18 | -36.23246 | -58.71276 | 21597 ft | 316 kts | 216° |
| 2026-05-07 20:18 | -36.25277 | -58.72356 | 21442 ft | 321 kts | 216° |
| 2026-05-07 20:19 | -36.27338 | -58.73478 | 21172 ft | 327 kts | 216° |
| 2026-05-07 20:19 | -36.29446 | -58.74671 | 20715 ft | 337 kts | 216° |
| 2026-05-07 20:19 | -36.31530 | -58.75898 | 20273 ft | 334 kts | 216° |
| 2026-05-07 20:19 | -36.33607 | -58.77139 | 19822 ft | 330 kts | 215° |
| 2026-05-07 20:20 | -36.35698 | -58.78357 | 19361 ft | 325 kts | 214° |
| 2026-05-07 20:20 | -36.37678 | -58.79588 | 18936 ft | 319 kts | 216° |
| 2026-05-07 20:20 | -36.39602 | -58.80896 | 18514 ft | 312 kts | 218° |
| 2026-05-07 20:20 | -36.41477 | -58.82211 | 18105 ft | 308 kts | 216° |
| 2026-05-07 20:21 | -36.43350 | -58.83479 | 17679 ft | 305 kts | 215° |
| 2026-05-07 20:21 | -36.45214 | -58.84733 | 17217 ft | 303 kts | 215° |
| 2026-05-07 20:21 | -36.47058 | -58.85975 | 16765 ft | 301 kts | 214° |
| 2026-05-07 20:21 | -36.48898 | -58.87212 | 16327 ft | 300 kts | 214° |
| 2026-05-07 20:22 | -36.50133 | -58.88042 | 16033 ft | 299 kts | 213° |
| 2026-05-07 20:22 | -36.51935 | -58.89255 | 15612 ft | 298 kts | 213° |
| 2026-05-07 20:22 | -36.53755 | -58.90480 | 15194 ft | 297 kts | 213° |
| 2026-05-07 20:22 | -36.55574 | -58.91705 | 14783 ft | 297 kts | 212° |
| 2026-05-07 20:23 | -36.57391 | -58.92931 | 14378 ft | 297 kts | 212° |
| 2026-05-07 20:23 | -36.59204 | -58.94153 | 13974 ft | 296 kts | 212° |
| 2026-05-07 20:23 | -36.61013 | -58.95375 | 13579 ft | 296 kts | 212° |
| 2026-05-07 20:23 | -36.62827 | -58.96597 | 13155 ft | 296 kts | 212° |
| 2026-05-07 20:24 | -36.64635 | -58.97817 | 12709 ft | 295 kts | 211° |
| 2026-05-07 20:24 | -36.66435 | -58.99036 | 12276 ft | 294 kts | 212° |
| 2026-05-07 20:24 | -36.68235 | -59.00254 | 11845 ft | 293 kts | 212° |
| 2026-05-07 20:24 | -36.70024 | -59.01462 | 11427 ft | 292 kts | 211° |
| 2026-05-07 20:25 | -36.71801 | -59.02661 | 11016 ft | 290 kts | 212° |
| 2026-05-07 20:25 | -36.73570 | -59.03860 | 10611 ft | 288 kts | 212° |
| 2026-05-07 20:25 | -36.75327 | -59.05050 | 10216 ft | 278 kts | 212° |
| 2026-05-07 20:25 | -36.76916 | -59.06121 | 9852 ft | 243 kts | 212° |
| 2026-05-07 20:26 | -36.78327 | -59.07060 | 9536 ft | 218 kts | 212° |
| 2026-05-07 20:26 | -36.79596 | -59.07905 | 9227 ft | 196 kts | 212° |
| 2026-05-07 20:26 | -36.80735 | -59.08691 | 8940 ft | 182 kts | 213° |
| 2026-05-07 20:26 | -36.81854 | -59.09430 | 8673 ft | 184 kts | 213° |
| 2026-05-07 20:27 | -36.83007 | -59.10205 | 8407 ft | 192 kts | 212° |
| 2026-05-07 20:27 | -36.84206 | -59.11017 | 8134 ft | 199 kts | 212° |
| 2026-05-07 20:27 | -36.85439 | -59.11853 | 7843 ft | 204 kts | 211° |
| 2026-05-07 20:27 | -36.86690 | -59.12721 | 7556 ft | 208 kts | 211° |
| 2026-05-07 20:28 | -36.87967 | -59.13598 | 7268 ft | 210 kts | 211° |
| 2026-05-07 20:28 | -36.89244 | -59.14474 | 8081 ft | 209 kts | 212° |
| 2026-05-07 20:28 | -36.90513 | -59.15354 | 8979 ft | 204 kts | 211° |
| 2026-05-07 20:28 | -36.91692 | -59.16158 | 8712 ft | 183 kts | 211° |
| 2026-05-07 20:29 | -36.92768 | -59.16876 | 8469 ft | 169 kts | 210° |
| 2026-05-07 20:29 | -36.93779 | -59.17559 | 8236 ft | 164 kts | 210° |
| 2026-05-07 20:29 | -36.94797 | -59.18232 | 8015 ft | 165 kts | 209° |
| 2026-05-07 20:29 | -36.95802 | -59.18912 | 7797 ft | 164 kts | 212° |
| 2026-05-07 20:30 | -36.96781 | -59.19595 | 7558 ft | 159 kts | 211° |
| 2026-05-07 20:30 | -36.97751 | -59.20196 | 7326 ft | 159 kts | 197° |
| 2026-05-07 20:30 | -36.98855 | -59.20302 | 7104 ft | 160 kts | 187° |
| 2026-05-07 20:30 | -36.99965 | -59.20364 | 6877 ft | 160 kts | 186° |
| 2026-05-07 20:31 | -37.01076 | -59.20418 | 6654 ft | 159 kts | 187° |
| 2026-05-07 20:31 | -37.02175 | -59.20486 | 6422 ft | 157 kts | 188° |
| 2026-05-07 20:31 | -37.03264 | -59.20583 | 6177 ft | 156 kts | 189° |
| 2026-05-07 20:31 | -37.04341 | -59.20695 | 5940 ft | 154 kts | 189° |
| 2026-05-07 20:32 | -37.05404 | -59.20803 | 5714 ft | 152 kts | 189° |
| 2026-05-07 20:32 | -37.06446 | -59.20916 | 5508 ft | 149 kts | 190° |
| 2026-05-07 20:32 | -37.07469 | -59.21030 | 5315 ft | 147 kts | 191° |
| 2026-05-07 20:32 | -37.08482 | -59.21147 | 5110 ft | 143 kts | 191° |
| 2026-05-07 20:33 | -37.09401 | -59.21243 | 4915 ft | 124 kts | 191° |
| 2026-05-07 20:33 | -37.10213 | -59.21327 | 4738 ft | 111 kts | 192° |
| 2026-05-07 20:33 | -37.10963 | -59.21406 | 4567 ft | 106 kts | 193° |
| 2026-05-07 20:33 | -37.11693 | -59.21485 | 4411 ft | 104 kts | 193° |
| 2026-05-07 20:34 | -37.12407 | -59.21559 | 4262 ft | 103 kts | 193° |
| 2026-05-07 20:34 | -37.13115 | -59.21640 | 4151 ft | 101 kts | 193° |
| 2026-05-07 20:34 | -37.13805 | -59.21714 | 4069 ft | 98 kts | 193° |
| 2026-05-07 20:34 | -37.14482 | -59.21786 | 4007 ft | 98 kts | 192° |
| 2026-05-07 20:35 | -37.15175 | -59.21836 | 3930 ft | 101 kts | 191° |
| 2026-05-07 20:35 | -37.15873 | -59.21911 | 2186 ft | 102 kts | 193° |
| 2026-05-07 20:35 | -37.16586 | -59.22002 | 1272 ft | 104 kts | 193° |
| 2026-05-07 20:35 | -37.17308 | -59.22089 | 1162 ft | 104 kts | 190° |
| 2026-05-07 20:36 | -37.18022 | -59.22185 | 1087 ft | 101 kts | 192° |
| 2026-05-07 20:36 | -37.18735 | -59.22270 | 939 ft | 108 kts | 189° |
| 2026-05-07 20:36 | -37.19497 | -59.22385 | 791 ft | 111 kts | 190° |
| 2026-05-07 20:36 | -37.20245 | -59.22505 | 721 ft | 108 kts | 189° |
| 2026-05-07 20:37 | -37.20999 | -59.22575 | 629 ft | 110 kts | 188° |
| 2026-05-07 20:37 | -37.21778 | -59.22669 | 552 ft | 113 kts | 186° |
| 2026-05-07 20:37 | -37.22545 | -59.22761 | 491 ft | 107 kts | 187° |
| 2026-05-07 20:37 | -37.23127 | -59.22829 | 495 ft | 54 kts | 186° |
| 2026-05-07 20:38 | -37.23446 | -59.22861 | 498 ft | 37 kts | 184° |
| 2026-05-07 20:38 | -37.23645 | -59.22883 | 499 ft | 22 kts | 185° |
| 2026-05-07 20:38 | -37.23797 | -59.22899 | 499 ft | 18 kts | 184° |
| 2026-05-07 20:38 | -37.23941 | -59.22917 | 500 ft | 29 kts | 186° |
| 2026-05-07 20:39 | -37.24095 | -59.22932 | 503 ft | 17 kts | 185° |
| 2026-05-07 20:39 | -37.24176 | -59.22958 | 504 ft | 8 kts | 237° |
| 2026-05-07 20:39 | -37.24176 | -59.23015 | 504 ft | 6 kts | 291° |
| 2026-05-07 20:39 | -37.24152 | -59.23055 | 504 ft | 6 kts | 315° |
| 2026-05-07 20:40 | -37.24118 | -59.23097 | 504 ft | 7 kts | 316° |
| 2026-05-07 20:40 | -37.24078 | -59.23144 | 503 ft | 8 kts | 315° |
| 2026-05-07 20:40 | -37.24037 | -59.23196 | 503 ft | 8 kts | 314° |
| 2026-05-07 20:40 | -37.24036 | -59.23245 | 503 ft | 4 kts | 245° |
| 2026-05-07 20:41 | -37.24049 | -59.23269 | 504 ft | 3 kts | 232° |
| 2026-05-07 20:41 | -37.24062 | -59.23291 | 504 ft | 5 kts | 232° |
| 2026-05-07 20:41 | -37.24088 | -59.23331 | 504 ft | 4 kts | 229° |
| 2026-05-07 20:41 | -37.24098 | -59.23345 | 504 ft | 0 kts | 229° |
| 2026-05-07 20:45 | -37.24099 | -59.23348 | 504 ft | 3 kts | 229° |
| 2026-05-07 20:45 | -37.24100 | -59.23349 | 504 ft | 0 kts | 229° |